sensor_id;sensor_type;location;lat;lon;timestamp;P1;durP1;ratioP1;P2;durP2;ratioP2
62582;SDS011;48641;51.676;5.808;2022-12-18T00:01:31;26.38;;;12.57;;
62582;SDS011;48641;51.676;5.808;2022-12-18T00:03:59;22.70;;;11.45;;
62582;SDS011;48641;51.676;5.808;2022-12-18T00:06:26;24.58;;;11.38;;
62582;SDS011;48641;51.676;5.808;2022-12-18T00:08:54;22.98;;;12.00;;
62582;SDS011;48641;51.676;5.808;2022-12-18T00:11:22;24.42;;;11.85;;
62582;SDS011;48641;51.676;5.808;2022-12-18T01:35:16;19.52;;;9.45;;
62582;SDS011;48641;51.676;5.808;2022-12-18T01:37:41;17.65;;;8.60;;
62582;SDS011;48641;51.676;5.808;2022-12-18T01:40:07;16.17;;;8.02;;
62582;SDS011;48641;51.676;5.808;2022-12-18T01:42:33;17.33;;;8.23;;
62582;SDS011;48641;51.676;5.808;2022-12-18T01:45:05;18.42;;;8.90;;
62582;SDS011;48641;51.676;5.808;2022-12-18T01:50:33;17.20;;;8.40;;
62582;SDS011;48641;51.676;5.808;2022-12-18T02:01:15;15.38;;;7.80;;
62582;SDS011;48641;51.676;5.808;2022-12-18T02:03:42;17.35;;;9.02;;
62582;SDS011;48641;51.676;5.808;2022-12-18T02:08:40;16.48;;;7.57;;
62582;SDS011;48641;51.676;5.808;2022-12-18T02:11:10;16.92;;;7.70;;
62582;SDS011;48641;51.676;5.808;2022-12-18T02:27:15;16.27;;;7.90;;
62582;SDS011;48641;51.676;5.808;2022-12-18T02:29:46;14.05;;;6.80;;
62582;SDS011;48641;51.676;5.808;2022-12-18T02:32:18;14.25;;;6.57;;
62582;SDS011;48641;51.676;5.808;2022-12-18T02:34:49;14.25;;;6.97;;
62582;SDS011;48641;51.676;5.808;2022-12-18T02:37:17;15.80;;;7.88;;
62582;SDS011;48641;51.676;5.808;2022-12-18T02:39:46;14.63;;;7.73;;
62582;SDS011;48641;51.676;5.808;2022-12-18T02:42:13;15.20;;;7.72;;
62582;SDS011;48641;51.676;5.808;2022-12-18T02:44:43;16.13;;;7.30;;
62582;SDS011;48641;51.676;5.808;2022-12-18T02:47:11;13.52;;;7.10;;
62582;SDS011;48641;51.676;5.808;2022-12-18T03:02:59;13.80;;;6.68;;
62582;SDS011;48641;51.676;5.808;2022-12-18T03:05:47;13.05;;;6.35;;
62582;SDS011;48641;51.676;5.808;2022-12-18T03:08:23;13.80;;;6.20;;
62582;SDS011;48641;51.676;5.808;2022-12-18T03:11:02;13.73;;;6.35;;
62582;SDS011;48641;51.676;5.808;2022-12-18T03:13:35;13.50;;;6.27;;
62582;SDS011;48641;51.676;5.808;2022-12-18T03:16:06;13.48;;;6.05;;
62582;SDS011;48641;51.676;5.808;2022-12-18T03:18:36;11.65;;;6.05;;
62582;SDS011;48641;51.676;5.808;2022-12-18T03:21:08;14.55;;;7.22;;
62582;SDS011;48641;51.676;5.808;2022-12-18T03:23:39;12.83;;;5.80;;
62582;SDS011;48641;51.676;5.808;2022-12-18T03:26:08;13.63;;;6.43;;
62582;SDS011;48641;51.676;5.808;2022-12-18T03:28:38;13.77;;;6.85;;
62582;SDS011;48641;51.676;5.808;2022-12-18T03:31:07;12.95;;;6.00;;
62582;SDS011;48641;51.676;5.808;2022-12-18T03:33:38;15.00;;;6.35;;
62582;SDS011;48641;51.676;5.808;2022-12-18T03:36:12;14.77;;;6.45;;
62582;SDS011;48641;51.676;5.808;2022-12-18T03:38:38;12.38;;;5.78;;
62582;SDS011;48641;51.676;5.808;2022-12-18T03:41:10;11.43;;;6.00;;
62582;SDS011;48641;51.676;5.808;2022-12-18T03:43:56;12.93;;;6.13;;
62582;SDS011;48641;51.676;5.808;2022-12-18T03:46:31;13.63;;;6.13;;
62582;SDS011;48641;51.676;5.808;2022-12-18T03:49:04;10.73;;;5.55;;
62582;SDS011;48641;51.676;5.808;2022-12-18T03:51:43;11.80;;;5.93;;
62582;SDS011;48641;51.676;5.808;2022-12-18T03:54:16;12.98;;;5.85;;
62582;SDS011;48641;51.676;5.808;2022-12-18T03:56:44;11.13;;;5.20;;
62582;SDS011;48641;51.676;5.808;2022-12-18T03:59:13;12.85;;;5.82;;
62582;SDS011;48641;51.676;5.808;2022-12-18T04:01:42;14.43;;;6.35;;
62582;SDS011;48641;51.676;5.808;2022-12-18T04:04:11;11.43;;;5.75;;
62582;SDS011;48641;51.676;5.808;2022-12-18T04:06:39;10.82;;;5.43;;
62582;SDS011;48641;51.676;5.808;2022-12-18T04:09:06;10.73;;;5.28;;
62582;SDS011;48641;51.676;5.808;2022-12-18T04:11:32;9.68;;;4.97;;
62582;SDS011;48641;51.676;5.808;2022-12-18T04:13:58;12.18;;;5.65;;
62582;SDS011;48641;51.676;5.808;2022-12-18T04:16:25;10.65;;;4.90;;
62582;SDS011;48641;51.676;5.808;2022-12-18T04:18:51;10.45;;;5.22;;
62582;SDS011;48641;51.676;5.808;2022-12-18T04:21:17;9.82;;;4.80;;
62582;SDS011;48641;51.676;5.808;2022-12-18T04:23:43;11.85;;;5.30;;
62582;SDS011;48641;51.676;5.808;2022-12-18T04:26:08;10.30;;;4.75;;
62582;SDS011;48641;51.676;5.808;2022-12-18T04:28:34;11.23;;;5.45;;
62582;SDS011;48641;51.676;5.808;2022-12-18T04:30:59;10.18;;;5.10;;
62582;SDS011;48641;51.676;5.808;2022-12-18T04:33:25;10.57;;;5.03;;
62582;SDS011;48641;51.676;5.808;2022-12-18T04:35:50;11.43;;;5.50;;
62582;SDS011;48641;51.676;5.808;2022-12-18T04:38:16;9.63;;;4.80;;
62582;SDS011;48641;51.676;5.808;2022-12-18T04:40:42;9.57;;;4.95;;
62582;SDS011;48641;51.676;5.808;2022-12-18T04:43:08;10.10;;;4.70;;
62582;SDS011;48641;51.676;5.808;2022-12-18T04:45:33;10.82;;;5.00;;
62582;SDS011;48641;51.676;5.808;2022-12-18T04:48:00;10.43;;;5.07;;
62582;SDS011;48641;51.676;5.808;2022-12-18T04:50:26;11.13;;;4.95;;
62582;SDS011;48641;51.676;5.808;2022-12-18T04:52:52;10.48;;;4.75;;
62582;SDS011;48641;51.676;5.808;2022-12-18T04:55:18;10.20;;;4.78;;
62582;SDS011;48641;51.676;5.808;2022-12-18T04:57:43;12.13;;;4.82;;
62582;SDS011;48641;51.676;5.808;2022-12-18T05:00:09;10.15;;;4.90;;
62582;SDS011;48641;51.676;5.808;2022-12-18T05:02:36;10.18;;;4.57;;
62582;SDS011;48641;51.676;5.808;2022-12-18T05:05:01;9.63;;;4.68;;
62582;SDS011;48641;51.676;5.808;2022-12-18T05:07:27;11.05;;;4.43;;
62582;SDS011;48641;51.676;5.808;2022-12-18T05:09:53;10.48;;;4.57;;
62582;SDS011;48641;51.676;5.808;2022-12-18T05:12:18;8.73;;;4.47;;
62582;SDS011;48641;51.676;5.808;2022-12-18T05:14:44;13.00;;;4.82;;
62582;SDS011;48641;51.676;5.808;2022-12-18T05:17:09;11.02;;;4.93;;
62582;SDS011;48641;51.676;5.808;2022-12-18T05:19:35;9.27;;;4.55;;
62582;SDS011;48641;51.676;5.808;2022-12-18T05:22:00;9.48;;;4.35;;
62582;SDS011;48641;51.676;5.808;2022-12-18T05:24:26;9.32;;;4.60;;
62582;SDS011;48641;51.676;5.808;2022-12-18T05:26:52;9.95;;;4.53;;
62582;SDS011;48641;51.676;5.808;2022-12-18T05:29:17;10.18;;;4.70;;
62582;SDS011;48641;51.676;5.808;2022-12-18T05:31:43;10.20;;;4.32;;
62582;SDS011;48641;51.676;5.808;2022-12-18T05:34:09;8.57;;;3.90;;
62582;SDS011;48641;51.676;5.808;2022-12-18T05:36:34;9.13;;;3.55;;
62582;SDS011;48641;51.676;5.808;2022-12-18T05:39:00;9.65;;;4.03;;
62582;SDS011;48641;51.676;5.808;2022-12-18T05:41:26;10.00;;;4.72;;
62582;SDS011;48641;51.676;5.808;2022-12-18T05:43:52;8.43;;;4.25;;
62582;SDS011;48641;51.676;5.808;2022-12-18T05:46:17;10.07;;;4.32;;
62582;SDS011;48641;51.676;5.808;2022-12-18T05:48:44;8.90;;;4.20;;
62582;SDS011;48641;51.676;5.808;2022-12-18T05:51:11;9.23;;;4.32;;
62582;SDS011;48641;51.676;5.808;2022-12-18T05:53:39;9.00;;;3.88;;
62582;SDS011;48641;51.676;5.808;2022-12-18T05:56:07;8.80;;;3.83;;
62582;SDS011;48641;51.676;5.808;2022-12-18T05:58:34;9.82;;;3.80;;
62582;SDS011;48641;51.676;5.808;2022-12-18T06:01:07;8.85;;;3.90;;
62582;SDS011;48641;51.676;5.808;2022-12-18T06:03:40;8.40;;;3.80;;
62582;SDS011;48641;51.676;5.808;2022-12-18T06:06:13;9.50;;;3.85;;
62582;SDS011;48641;51.676;5.808;2022-12-18T06:08:43;9.30;;;4.18;;
62582;SDS011;48641;51.676;5.808;2022-12-18T06:11:09;8.40;;;3.72;;
62582;SDS011;48641;51.676;5.808;2022-12-18T06:13:35;7.97;;;3.47;;
62582;SDS011;48641;51.676;5.808;2022-12-18T06:16:03;8.25;;;3.83;;
62582;SDS011;48641;51.676;5.808;2022-12-18T06:18:32;8.10;;;3.60;;
62582;SDS011;48641;51.676;5.808;2022-12-18T06:20:58;8.93;;;3.50;;
62582;SDS011;48641;51.676;5.808;2022-12-18T06:23:24;9.05;;;4.03;;
62582;SDS011;48641;51.676;5.808;2022-12-18T06:25:50;8.70;;;3.80;;
62582;SDS011;48641;51.676;5.808;2022-12-18T06:28:16;8.88;;;3.45;;
62582;SDS011;48641;51.676;5.808;2022-12-18T06:30:46;9.23;;;3.47;;
62582;SDS011;48641;51.676;5.808;2022-12-18T06:33:13;9.23;;;3.75;;
62582;SDS011;48641;51.676;5.808;2022-12-18T06:35:39;8.80;;;3.55;;
62582;SDS011;48641;51.676;5.808;2022-12-18T06:38:05;9.50;;;3.72;;
62582;SDS011;48641;51.676;5.808;2022-12-18T06:40:31;9.98;;;4.10;;
62582;SDS011;48641;51.676;5.808;2022-12-18T06:42:56;8.27;;;3.50;;
62582;SDS011;48641;51.676;5.808;2022-12-18T06:45:22;9.05;;;3.70;;
62582;SDS011;48641;51.676;5.808;2022-12-18T06:47:49;9.48;;;3.97;;
62582;SDS011;48641;51.676;5.808;2022-12-18T06:50:15;9.35;;;3.85;;
62582;SDS011;48641;51.676;5.808;2022-12-18T06:52:40;8.15;;;3.58;;
62582;SDS011;48641;51.676;5.808;2022-12-18T06:55:07;9.27;;;3.75;;
62582;SDS011;48641;51.676;5.808;2022-12-18T06:57:33;9.50;;;3.85;;
62582;SDS011;48641;51.676;5.808;2022-12-18T06:59:59;7.85;;;3.53;;
62582;SDS011;48641;51.676;5.808;2022-12-18T07:02:25;7.95;;;3.40;;
62582;SDS011;48641;51.676;5.808;2022-12-18T07:04:50;8.73;;;3.33;;
62582;SDS011;48641;51.676;5.808;2022-12-18T07:07:16;8.00;;;3.42;;
62582;SDS011;48641;51.676;5.808;2022-12-18T07:09:42;8.52;;;3.60;;
62582;SDS011;48641;51.676;5.808;2022-12-18T07:12:08;8.90;;;3.72;;
62582;SDS011;48641;51.676;5.808;2022-12-18T07:14:33;8.75;;;3.38;;
62582;SDS011;48641;51.676;5.808;2022-12-18T07:16:59;8.40;;;3.38;;
62582;SDS011;48641;51.676;5.808;2022-12-18T07:19:25;8.93;;;3.47;;
62582;SDS011;48641;51.676;5.808;2022-12-18T07:21:51;7.50;;;3.35;;
62582;SDS011;48641;51.676;5.808;2022-12-18T07:24:16;7.60;;;3.25;;
62582;SDS011;48641;51.676;5.808;2022-12-18T07:26:42;7.97;;;3.38;;
62582;SDS011;48641;51.676;5.808;2022-12-18T07:29:11;7.97;;;3.25;;
62582;SDS011;48641;51.676;5.808;2022-12-18T07:31:36;8.02;;;3.13;;
62582;SDS011;48641;51.676;5.808;2022-12-18T07:34:02;8.52;;;3.55;;
62582;SDS011;48641;51.676;5.808;2022-12-18T07:36:27;8.38;;;3.38;;
62582;SDS011;48641;51.676;5.808;2022-12-18T07:38:53;8.75;;;3.85;;
62582;SDS011;48641;51.676;5.808;2022-12-18T07:41:19;9.25;;;3.95;;
62582;SDS011;48641;51.676;5.808;2022-12-18T07:43:45;8.73;;;3.47;;
62582;SDS011;48641;51.676;5.808;2022-12-18T07:46:12;8.10;;;3.30;;
62582;SDS011;48641;51.676;5.808;2022-12-18T07:48:39;8.38;;;3.25;;
62582;SDS011;48641;51.676;5.808;2022-12-18T07:51:06;8.27;;;3.55;;
62582;SDS011;48641;51.676;5.808;2022-12-18T07:53:32;9.00;;;3.65;;
62582;SDS011;48641;51.676;5.808;2022-12-18T07:55:59;9.90;;;4.15;;
62582;SDS011;48641;51.676;5.808;2022-12-18T07:58:28;9.63;;;3.78;;
62582;SDS011;48641;51.676;5.808;2022-12-18T08:00:54;11.52;;;4.07;;
62582;SDS011;48641;51.676;5.808;2022-12-18T08:03:26;10.43;;;4.13;;
62582;SDS011;48641;51.676;5.808;2022-12-18T08:05:52;8.82;;;3.75;;
62582;SDS011;48641;51.676;5.808;2022-12-18T08:08:17;12.13;;;3.80;;
62582;SDS011;48641;51.676;5.808;2022-12-18T08:10:43;10.05;;;3.83;;
62582;SDS011;48641;51.676;5.808;2022-12-18T08:13:09;9.07;;;3.90;;
62582;SDS011;48641;51.676;5.808;2022-12-18T08:15:34;10.23;;;4.30;;
62582;SDS011;48641;51.676;5.808;2022-12-18T08:18:00;10.82;;;3.53;;
62582;SDS011;48641;51.676;5.808;2022-12-18T08:20:25;10.82;;;3.58;;
62582;SDS011;48641;51.676;5.808;2022-12-18T08:22:51;8.25;;;3.67;;
62582;SDS011;48641;51.676;5.808;2022-12-18T08:25:17;8.40;;;3.75;;
62582;SDS011;48641;51.676;5.808;2022-12-18T08:27:42;8.23;;;3.47;;
62582;SDS011;48641;51.676;5.808;2022-12-18T08:30:08;8.68;;;3.55;;
62582;SDS011;48641;51.676;5.808;2022-12-18T08:32:34;8.10;;;3.50;;
62582;SDS011;48641;51.676;5.808;2022-12-18T08:35:00;7.60;;;3.10;;
62582;SDS011;48641;51.676;5.808;2022-12-18T08:37:25;9.77;;;4.05;;
62582;SDS011;48641;51.676;5.808;2022-12-18T08:39:51;8.20;;;3.45;;
62582;SDS011;48641;51.676;5.808;2022-12-18T08:42:16;7.60;;;3.50;;
62582;SDS011;48641;51.676;5.808;2022-12-18T08:45:01;8.18;;;3.15;;
62582;SDS011;48641;51.676;5.808;2022-12-18T08:47:27;8.05;;;3.15;;
62582;SDS011;48641;51.676;5.808;2022-12-18T08:49:53;7.45;;;3.30;;
62582;SDS011;48641;51.676;5.808;2022-12-18T08:52:19;7.65;;;3.60;;
62582;SDS011;48641;51.676;5.808;2022-12-18T08:54:45;8.20;;;3.22;;
62582;SDS011;48641;51.676;5.808;2022-12-18T08:57:10;7.97;;;3.10;;
62582;SDS011;48641;51.676;5.808;2022-12-18T08:59:36;9.00;;;3.75;;
62582;SDS011;48641;51.676;5.808;2022-12-18T09:02:01;9.73;;;3.65;;
62582;SDS011;48641;51.676;5.808;2022-12-18T09:04:27;10.85;;;4.10;;
62582;SDS011;48641;51.676;5.808;2022-12-18T09:06:53;9.10;;;3.85;;
62582;SDS011;48641;51.676;5.808;2022-12-18T09:09:18;7.38;;;3.25;;
62582;SDS011;48641;51.676;5.808;2022-12-18T09:11:44;8.25;;;3.92;;
62582;SDS011;48641;51.676;5.808;2022-12-18T09:14:10;9.50;;;3.58;;
62582;SDS011;48641;51.676;5.808;2022-12-18T09:16:35;8.70;;;3.35;;
62582;SDS011;48641;51.676;5.808;2022-12-18T09:19:02;7.13;;;3.35;;
62582;SDS011;48641;51.676;5.808;2022-12-18T09:21:30;6.93;;;3.20;;
62582;SDS011;48641;51.676;5.808;2022-12-18T09:23:58;6.80;;;3.08;;
62582;SDS011;48641;51.676;5.808;2022-12-18T09:26:24;8.45;;;3.53;;
62582;SDS011;48641;51.676;5.808;2022-12-18T09:28:51;8.50;;;3.30;;
62582;SDS011;48641;51.676;5.808;2022-12-18T09:31:18;9.35;;;3.97;;
62582;SDS011;48641;51.676;5.808;2022-12-18T09:33:45;7.85;;;3.55;;
62582;SDS011;48641;51.676;5.808;2022-12-18T09:36:11;8.02;;;3.53;;
62582;SDS011;48641;51.676;5.808;2022-12-18T09:38:40;8.35;;;3.20;;
62582;SDS011;48641;51.676;5.808;2022-12-18T09:41:51;8.52;;;3.65;;
62582;SDS011;48641;51.676;5.808;2022-12-18T09:44:01;9.45;;;3.60;;
62582;SDS011;48641;51.676;5.808;2022-12-18T09:46:42;8.20;;;3.30;;
62582;SDS011;48641;51.676;5.808;2022-12-18T09:49:13;8.50;;;3.35;;
62582;SDS011;48641;51.676;5.808;2022-12-18T09:54:12;7.30;;;3.20;;
62582;SDS011;48641;51.676;5.808;2022-12-18T09:56:43;8.57;;;3.47;;
62582;SDS011;48641;51.676;5.808;2022-12-18T09:59:21;9.63;;;3.78;;
62582;SDS011;48641;51.676;5.808;2022-12-18T10:02:14;8.32;;;3.17;;
62582;SDS011;48641;51.676;5.808;2022-12-18T10:04:42;7.07;;;3.22;;
62582;SDS011;48641;51.676;5.808;2022-12-18T10:07:19;6.55;;;2.80;;
62582;SDS011;48641;51.676;5.808;2022-12-18T10:12:54;7.95;;;3.05;;
62582;SDS011;48641;51.676;5.808;2022-12-18T10:15:30;9.60;;;3.80;;
62582;SDS011;48641;51.676;5.808;2022-12-18T10:20:54;7.95;;;3.03;;
62582;SDS011;48641;51.676;5.808;2022-12-18T10:23:32;8.55;;;2.92;;
62582;SDS011;48641;51.676;5.808;2022-12-18T10:26:18;7.43;;;2.95;;
62582;SDS011;48641;51.676;5.808;2022-12-18T10:28:43;8.40;;;3.63;;
62582;SDS011;48641;51.676;5.808;2022-12-18T10:31:14;8.48;;;3.22;;
62582;SDS011;48641;51.676;5.808;2022-12-18T10:33:42;7.03;;;2.90;;
62582;SDS011;48641;51.676;5.808;2022-12-18T10:36:08;8.43;;;3.20;;
62582;SDS011;48641;51.676;5.808;2022-12-18T10:38:35;7.93;;;3.00;;
62582;SDS011;48641;51.676;5.808;2022-12-18T10:43:47;8.63;;;3.47;;
62582;SDS011;48641;51.676;5.808;2022-12-18T10:46:16;8.10;;;3.42;;
62582;SDS011;48641;51.676;5.808;2022-12-18T10:54:01;7.07;;;2.90;;
62582;SDS011;48641;51.676;5.808;2022-12-18T10:56:31;7.82;;;3.03;;
62582;SDS011;48641;51.676;5.808;2022-12-18T10:59:01;8.48;;;3.30;;
62582;SDS011;48641;51.676;5.808;2022-12-18T11:04:18;7.63;;;2.97;;
62582;SDS011;48641;51.676;5.808;2022-12-18T11:06:53;7.28;;;3.30;;
62582;SDS011;48641;51.676;5.808;2022-12-18T11:09:19;7.78;;;3.20;;
62582;SDS011;48641;51.676;5.808;2022-12-18T11:11:53;7.20;;;3.00;;
62582;SDS011;48641;51.676;5.808;2022-12-18T11:16:57;7.07;;;3.08;;
62582;SDS011;48641;51.676;5.808;2022-12-18T11:22:01;8.05;;;3.20;;
62582;SDS011;48641;51.676;5.808;2022-12-18T11:24:49;9.00;;;3.42;;
62582;SDS011;48641;51.676;5.808;2022-12-18T11:27:40;8.20;;;3.15;;
62582;SDS011;48641;51.676;5.808;2022-12-18T11:30:22;8.95;;;3.40;;
62582;SDS011;48641;51.676;5.808;2022-12-18T11:35:36;8.75;;;2.90;;
62582;SDS011;48641;51.676;5.808;2022-12-18T11:38:12;7.85;;;3.03;;
62582;SDS011;48641;51.676;5.808;2022-12-18T11:40:47;6.65;;;2.58;;
62582;SDS011;48641;51.676;5.808;2022-12-18T11:43:41;7.65;;;2.97;;
62582;SDS011;48641;51.676;5.808;2022-12-18T11:46:27;8.00;;;2.90;;
62582;SDS011;48641;51.676;5.808;2022-12-18T11:51:52;7.30;;;2.90;;
62582;SDS011;48641;51.676;5.808;2022-12-18T11:54:33;7.45;;;2.90;;
62582;SDS011;48641;51.676;5.808;2022-12-18T11:57:18;6.55;;;2.88;;
62582;SDS011;48641;51.676;5.808;2022-12-18T12:05:15;6.60;;;2.72;;
62582;SDS011;48641;51.676;5.808;2022-12-18T12:16:37;5.18;;;2.38;;
62582;SDS011;48641;51.676;5.808;2022-12-18T12:30:44;7.68;;;3.08;;
62582;SDS011;48641;51.676;5.808;2022-12-18T12:39:06;6.65;;;2.90;;
62582;SDS011;48641;51.676;5.808;2022-12-18T12:41:35;7.35;;;2.70;;
62582;SDS011;48641;51.676;5.808;2022-12-18T12:44:22;8.15;;;2.78;;
62582;SDS011;48641;51.676;5.808;2022-12-18T12:46:51;5.35;;;2.53;;
62582;SDS011;48641;51.676;5.808;2022-12-18T12:49:21;6.13;;;2.40;;
62582;SDS011;48641;51.676;5.808;2022-12-18T12:52:00;6.90;;;2.58;;
62582;SDS011;48641;51.676;5.808;2022-12-18T12:54:35;7.50;;;2.88;;
62582;SDS011;48641;51.676;5.808;2022-12-18T13:00:13;7.18;;;3.13;;
62582;SDS011;48641;51.676;5.808;2022-12-18T13:02:52;8.25;;;2.88;;
62582;SDS011;48641;51.676;5.808;2022-12-18T13:05:33;7.40;;;2.80;;
62582;SDS011;48641;51.676;5.808;2022-12-18T13:08:07;7.30;;;2.53;;
62582;SDS011;48641;51.676;5.808;2022-12-18T13:13:08;7.97;;;2.78;;
62582;SDS011;48641;51.676;5.808;2022-12-18T13:15:43;7.60;;;3.03;;
62582;SDS011;48641;51.676;5.808;2022-12-18T13:18:13;7.65;;;2.28;;
62582;SDS011;48641;51.676;5.808;2022-12-18T13:20:48;6.60;;;2.45;;
62582;SDS011;48641;51.676;5.808;2022-12-18T13:23:27;7.03;;;2.85;;
62582;SDS011;48641;51.676;5.808;2022-12-18T13:25:58;7.03;;;2.97;;
62582;SDS011;48641;51.676;5.808;2022-12-18T13:34:16;6.38;;;2.60;;
62582;SDS011;48641;51.676;5.808;2022-12-18T13:36:43;6.57;;;2.38;;
62582;SDS011;48641;51.676;5.808;2022-12-18T13:39:20;6.85;;;2.90;;
62582;SDS011;48641;51.676;5.808;2022-12-18T13:44:32;7.30;;;3.00;;
62582;SDS011;48641;51.676;5.808;2022-12-18T13:46:59;6.60;;;2.60;;
62582;SDS011;48641;51.676;5.808;2022-12-18T13:52:19;7.72;;;2.75;;
62582;SDS011;48641;51.676;5.808;2022-12-18T13:54:50;7.13;;;2.60;;
62582;SDS011;48641;51.676;5.808;2022-12-18T13:57:28;6.63;;;2.72;;
62582;SDS011;48641;51.676;5.808;2022-12-18T13:59:59;5.95;;;2.58;;
62582;SDS011;48641;51.676;5.808;2022-12-18T14:02:49;7.38;;;2.97;;
62582;SDS011;48641;51.676;5.808;2022-12-18T14:05:22;6.50;;;2.53;;
62582;SDS011;48641;51.676;5.808;2022-12-18T14:07:51;7.72;;;2.60;;
62582;SDS011;48641;51.676;5.808;2022-12-18T14:10:18;7.18;;;2.92;;
62582;SDS011;48641;51.676;5.808;2022-12-18T14:12:45;7.93;;;2.63;;
62582;SDS011;48641;51.676;5.808;2022-12-18T14:18:24;7.05;;;2.45;;
62582;SDS011;48641;51.676;5.808;2022-12-18T14:20:43;5.97;;;2.50;;
62582;SDS011;48641;51.676;5.808;2022-12-18T14:25:58;6.95;;;2.25;;
62582;SDS011;48641;51.676;5.808;2022-12-18T14:28:25;7.63;;;2.88;;
62582;SDS011;48641;51.676;5.808;2022-12-18T14:30:51;8.13;;;2.80;;
62582;SDS011;48641;51.676;5.808;2022-12-18T14:33:20;6.88;;;2.65;;
62582;SDS011;48641;51.676;5.808;2022-12-18T14:41:00;7.65;;;2.72;;
62582;SDS011;48641;51.676;5.808;2022-12-18T14:43:34;7.03;;;2.90;;
62582;SDS011;48641;51.676;5.808;2022-12-18T14:46:02;6.80;;;2.97;;
62582;SDS011;48641;51.676;5.808;2022-12-18T14:51:06;6.25;;;2.65;;
62582;SDS011;48641;51.676;5.808;2022-12-18T14:53:45;7.40;;;2.72;;
62582;SDS011;48641;51.676;5.808;2022-12-18T14:56:20;6.60;;;2.65;;
62582;SDS011;48641;51.676;5.808;2022-12-18T14:58:53;6.22;;;2.70;;
62582;SDS011;48641;51.676;5.808;2022-12-18T15:01:27;6.70;;;2.50;;
62582;SDS011;48641;51.676;5.808;2022-12-18T15:03:54;7.32;;;2.97;;
62582;SDS011;48641;51.676;5.808;2022-12-18T15:06:28;6.70;;;2.65;;
62582;SDS011;48641;51.676;5.808;2022-12-18T15:08:56;7.80;;;3.00;;
62582;SDS011;48641;51.676;5.808;2022-12-18T15:11:34;7.60;;;2.67;;
62582;SDS011;48641;51.676;5.808;2022-12-18T15:16:59;6.72;;;2.80;;
62582;SDS011;48641;51.676;5.808;2022-12-18T15:22:03;7.28;;;2.90;;
62582;SDS011;48641;51.676;5.808;2022-12-18T15:24:30;8.45;;;3.00;;
62582;SDS011;48641;51.676;5.808;2022-12-18T15:26:57;7.70;;;3.20;;
62582;SDS011;48641;51.676;5.808;2022-12-18T15:29:24;6.72;;;2.60;;
62582;SDS011;48641;51.676;5.808;2022-12-18T15:31:58;7.32;;;2.95;;
62582;SDS011;48641;51.676;5.808;2022-12-18T15:34:25;7.78;;;3.20;;
62582;SDS011;48641;51.676;5.808;2022-12-18T15:36:51;6.93;;;3.08;;
62582;SDS011;48641;51.676;5.808;2022-12-18T15:39:17;7.80;;;3.13;;
62582;SDS011;48641;51.676;5.808;2022-12-18T15:41:42;8.45;;;3.00;;
62582;SDS011;48641;51.676;5.808;2022-12-18T15:44:29;7.90;;;3.40;;
62582;SDS011;48641;51.676;5.808;2022-12-18T15:46:54;7.72;;;2.92;;
62582;SDS011;48641;51.676;5.808;2022-12-18T15:49:21;8.90;;;3.30;;
62582;SDS011;48641;51.676;5.808;2022-12-18T15:51:48;7.13;;;2.75;;
62582;SDS011;48641;51.676;5.808;2022-12-18T15:54:18;9.80;;;3.30;;
62582;SDS011;48641;51.676;5.808;2022-12-18T15:57:07;8.55;;;3.42;;
62582;SDS011;48641;51.676;5.808;2022-12-18T15:59:53;8.68;;;3.42;;
62582;SDS011;48641;51.676;5.808;2022-12-18T16:02:21;8.05;;;3.10;;
62582;SDS011;48641;51.676;5.808;2022-12-18T16:04:47;7.70;;;3.17;;
62582;SDS011;48641;51.676;5.808;2022-12-18T16:07:13;8.32;;;3.67;;
62582;SDS011;48641;51.676;5.808;2022-12-18T16:09:39;8.50;;;3.17;;
62582;SDS011;48641;51.676;5.808;2022-12-18T16:12:05;9.63;;;3.50;;
62582;SDS011;48641;51.676;5.808;2022-12-18T16:14:36;7.70;;;3.30;;
62582;SDS011;48641;51.676;5.808;2022-12-18T16:17:03;8.13;;;3.03;;
62582;SDS011;48641;51.676;5.808;2022-12-18T16:19:33;8.48;;;3.40;;
62582;SDS011;48641;51.676;5.808;2022-12-18T16:21:59;7.07;;;3.08;;
62582;SDS011;48641;51.676;5.808;2022-12-18T16:26:56;8.30;;;3.30;;
62582;SDS011;48641;51.676;5.808;2022-12-18T16:29:24;9.23;;;3.30;;
62582;SDS011;48641;51.676;5.808;2022-12-18T16:32:01;8.45;;;3.65;;
62582;SDS011;48641;51.676;5.808;2022-12-18T16:34:28;8.02;;;3.72;;
62582;SDS011;48641;51.676;5.808;2022-12-18T16:36:56;8.85;;;3.95;;
62582;SDS011;48641;51.676;5.808;2022-12-18T16:39:23;8.60;;;3.67;;
62582;SDS011;48641;51.676;5.808;2022-12-18T16:41:49;8.73;;;3.58;;
62582;SDS011;48641;51.676;5.808;2022-12-18T16:44:15;8.85;;;3.58;;
62582;SDS011;48641;51.676;5.808;2022-12-18T16:46:40;9.57;;;3.50;;
62582;SDS011;48641;51.676;5.808;2022-12-18T16:49:16;10.07;;;4.20;;
62582;SDS011;48641;51.676;5.808;2022-12-18T16:51:43;8.73;;;3.10;;
62582;SDS011;48641;51.676;5.808;2022-12-18T16:54:10;8.98;;;3.60;;
62582;SDS011;48641;51.676;5.808;2022-12-18T19:20:59;11.68;;;5.32;;
62582;SDS011;48641;51.676;5.808;2022-12-18T19:23:26;11.27;;;5.00;;
62582;SDS011;48641;51.676;5.808;2022-12-18T19:25:52;12.38;;;5.45;;
62582;SDS011;48641;51.676;5.808;2022-12-18T19:28:18;10.27;;;4.90;;
62582;SDS011;48641;51.676;5.808;2022-12-18T19:30:45;10.90;;;4.63;;
62582;SDS011;48641;51.676;5.808;2022-12-18T19:33:11;10.30;;;5.13;;
62582;SDS011;48641;51.676;5.808;2022-12-18T19:35:37;10.55;;;4.35;;
62582;SDS011;48641;51.676;5.808;2022-12-18T19:38:02;10.48;;;4.68;;
62582;SDS011;48641;51.676;5.808;2022-12-18T19:40:28;10.32;;;4.70;;
62582;SDS011;48641;51.676;5.808;2022-12-18T19:42:54;11.40;;;5.15;;
62582;SDS011;48641;51.676;5.808;2022-12-18T19:45:19;10.35;;;4.88;;
62582;SDS011;48641;51.676;5.808;2022-12-18T19:47:45;11.32;;;5.13;;
62582;SDS011;48641;51.676;5.808;2022-12-18T19:50:10;10.52;;;4.72;;
62582;SDS011;48641;51.676;5.808;2022-12-18T19:52:36;10.93;;;5.30;;
62582;SDS011;48641;51.676;5.808;2022-12-18T19:55:02;11.07;;;4.88;;
62582;SDS011;48641;51.676;5.808;2022-12-18T19:57:28;11.50;;;5.60;;
62582;SDS011;48641;51.676;5.808;2022-12-18T19:59:55;10.85;;;4.75;;
62582;SDS011;48641;51.676;5.808;2022-12-18T20:02:20;9.95;;;5.03;;
62582;SDS011;48641;51.676;5.808;2022-12-18T20:04:46;9.10;;;4.03;;
62582;SDS011;48641;51.676;5.808;2022-12-18T20:07:12;10.35;;;4.90;;
62582;SDS011;48641;51.676;5.808;2022-12-18T20:09:38;10.18;;;5.22;;
62582;SDS011;48641;51.676;5.808;2022-12-18T20:12:04;11.18;;;5.00;;
62582;SDS011;48641;51.676;5.808;2022-12-18T20:14:29;11.50;;;5.07;;
62582;SDS011;48641;51.676;5.808;2022-12-18T20:16:55;10.02;;;5.32;;
62582;SDS011;48641;51.676;5.808;2022-12-18T20:19:21;10.00;;;4.97;;
62582;SDS011;48641;51.676;5.808;2022-12-18T20:21:47;10.23;;;4.57;;
62582;SDS011;48641;51.676;5.808;2022-12-18T20:24:12;10.65;;;4.78;;
62582;SDS011;48641;51.676;5.808;2022-12-18T20:26:38;11.10;;;4.95;;
62582;SDS011;48641;51.676;5.808;2022-12-18T20:29:04;10.82;;;4.55;;
62582;SDS011;48641;51.676;5.808;2022-12-18T20:31:30;10.93;;;4.90;;
62582;SDS011;48641;51.676;5.808;2022-12-18T20:33:56;10.43;;;4.78;;
62582;SDS011;48641;51.676;5.808;2022-12-18T20:36:21;11.10;;;4.95;;
62582;SDS011;48641;51.676;5.808;2022-12-18T20:38:47;11.73;;;5.30;;
62582;SDS011;48641;51.676;5.808;2022-12-18T20:41:15;11.60;;;4.47;;
62582;SDS011;48641;51.676;5.808;2022-12-18T20:43:43;10.60;;;4.72;;
62582;SDS011;48641;51.676;5.808;2022-12-18T20:46:09;11.93;;;5.20;;
62582;SDS011;48641;51.676;5.808;2022-12-18T20:48:37;12.87;;;5.07;;
62582;SDS011;48641;51.676;5.808;2022-12-18T20:51:04;10.00;;;5.10;;
62582;SDS011;48641;51.676;5.808;2022-12-18T20:53:32;14.18;;;5.85;;
62582;SDS011;48641;51.676;5.808;2022-12-18T20:55:58;9.93;;;4.82;;
62582;SDS011;48641;51.676;5.808;2022-12-18T20:58:24;10.18;;;4.63;;
62582;SDS011;48641;51.676;5.808;2022-12-18T21:00:50;10.73;;;4.97;;